sensor_id;sensor_type;location;lat;lon;timestamp;pressure;altitude;pressure_sealevel;temperature;humidity
36630;BME280;36256;42.154;23.002;2023-05-09T00:01:19;97331.84;;;15.89;100.00
36630;BME280;36256;42.154;23.002;2023-05-09T00:03:46;97332.34;;;15.88;100.00
36630;BME280;36256;42.154;23.002;2023-05-09T00:06:13;97328.53;;;15.76;100.00
36630;BME280;36256;42.154;23.002;2023-05-09T00:08:40;97320.31;;;15.78;100.00
36630;BME280;36256;42.154;23.002;2023-05-09T00:11:07;97302.69;;;15.68;100.00
36630;BME280;36256;42.154;23.002;2023-05-09T00:13:34;97311.38;;;15.80;100.00
36630;BME280;36256;42.154;23.002;2023-05-09T00:16:01;97314.66;;;15.78;100.00
36630;BME280;36256;42.154;23.002;2023-05-09T00:18:29;97317.03;;;15.80;100.00
36630;BME280;36256;42.154;23.002;2023-05-09T00:20:56;97317.31;;;15.82;100.00
36630;BME280;36256;42.154;23.002;2023-05-09T00:23:23;97319.16;;;15.70;100.00
36630;BME280;36256;42.154;23.002;2023-05-09T00:25:50;97319.94;;;15.70;100.00
36630;BME280;36256;42.154;23.002;2023-05-09T00:28:16;97321.91;;;15.64;100.00
36630;BME280;36256;42.154;23.002;2023-05-09T00:30:43;97321.91;;;15.64;100.00
36630;BME280;36256;42.154;23.002;2023-05-09T00:33:10;97312.13;;;15.65;100.00
36630;BME280;36256;42.154;23.002;2023-05-09T00:35:37;97297.50;;;15.52;100.00
36630;BME280;36256;42.154;23.002;2023-05-09T00:38:03;97315.25;;;15.67;100.00
36630;BME280;36256;42.154;23.002;2023-05-09T00:40:30;97310.59;;;15.64;100.00
36630;BME280;36256;42.154;23.002;2023-05-09T00:43:00;97319.06;;;15.64;100.00
36630;BME280;36256;42.154;23.002;2023-05-09T00:45:26;97315.97;;;15.62;100.00
36630;BME280;36256;42.154;23.002;2023-05-09T00:47:54;97310.88;;;15.52;100.00
36630;BME280;36256;42.154;23.002;2023-05-09T00:50:21;97311.94;;;15.54;100.00
36630;BME280;36256;42.154;23.002;2023-05-09T00:52:47;97313.78;;;15.57;100.00
36630;BME280;36256;42.154;23.002;2023-05-09T00:55:14;97295.41;;;15.38;100.00
36630;BME280;36256;42.154;23.002;2023-05-09T00:57:42;97297.97;;;15.36;100.00
36630;BME280;36256;42.154;23.002;2023-05-09T01:00:09;97311.63;;;15.52;100.00
36630;BME280;36256;42.154;23.002;2023-05-09T01:02:41;97307.25;;;15.51;100.00
36630;BME280;36256;42.154;23.002;2023-05-09T01:05:09;97314.88;;;15.45;100.00
36630;BME280;36256;42.154;23.002;2023-05-09T01:07:55;97308.72;;;15.47;100.00
36630;BME280;36256;42.154;23.002;2023-05-09T01:10:32;97308.78;;;15.38;100.00
36630;BME280;36256;42.154;23.002;2023-05-09T01:13:05;97307.81;;;15.41;99.33
36630;BME280;36256;42.154;23.002;2023-05-09T01:16:09;97312.50;;;15.44;97.93
36630;BME280;36256;42.154;23.002;2023-05-09T01:18:48;97311.34;;;15.50;99.58
36630;BME280;36256;42.154;23.002;2023-05-09T01:21:20;97318.94;;;15.44;100.00
36630;BME280;36256;42.154;23.002;2023-05-09T01:24:50;97314.25;;;15.41;100.00
36630;BME280;36256;42.154;23.002;2023-05-09T01:27:14;97327.50;;;15.35;100.00
36630;BME280;36256;42.154;23.002;2023-05-09T01:29:47;97321.25;;;15.31;100.00
36630;BME280;36256;42.154;23.002;2023-05-09T01:32:22;97316.34;;;15.17;100.00
36630;BME280;36256;42.154;23.002;2023-05-09T01:34:51;97331.50;;;15.29;100.00
36630;BME280;36256;42.154;23.002;2023-05-09T01:37:23;97334.13;;;15.32;100.00
36630;BME280;36256;42.154;23.002;2023-05-09T01:39:52;97332.34;;;15.20;100.00
36630;BME280;36256;42.154;23.002;2023-05-09T01:42:21;97324.53;;;15.15;100.00
36630;BME280;36256;42.154;23.002;2023-05-09T01:44:49;97314.28;;;15.03;100.00
36630;BME280;36256;42.154;23.002;2023-05-09T01:47:16;97321.59;;;15.10;100.00
36630;BME280;36256;42.154;23.002;2023-05-09T01:49:44;97327.03;;;14.99;100.00
36630;BME280;36256;42.154;23.002;2023-05-09T01:52:15;97330.81;;;14.95;100.00
36630;BME280;36256;42.154;23.002;2023-05-09T01:54:44;97315.09;;;14.80;100.00
36630;BME280;36256;42.154;23.002;2023-05-09T01:57:11;97334.59;;;14.92;100.00
36630;BME280;36256;42.154;23.002;2023-05-09T01:59:40;97340.25;;;14.92;100.00
36630;BME280;36256;42.154;23.002;2023-05-09T02:02:08;97329.13;;;14.89;100.00
36630;BME280;36256;42.154;23.002;2023-05-09T02:04:36;97340.66;;;14.76;100.00
36630;BME280;36256;42.154;23.002;2023-05-09T02:07:05;97352.16;;;14.73;100.00
36630;BME280;36256;42.154;23.002;2023-05-09T02:09:31;97349.75;;;14.80;100.00
36630;BME280;36256;42.154;23.002;2023-05-09T02:11:58;97332.38;;;14.73;100.00
36630;BME280;36256;42.154;23.002;2023-05-09T02:14:25;97357.38;;;14.89;100.00
36630;BME280;36256;42.154;23.002;2023-05-09T02:16:52;97354.25;;;14.87;100.00
36630;BME280;36256;42.154;23.002;2023-05-09T02:19:19;97357.06;;;14.87;100.00
36630;BME280;36256;42.154;23.002;2023-05-09T02:21:46;97355.88;;;14.79;100.00
36630;BME280;36256;42.154;23.002;2023-05-09T02:24:12;97328.63;;;14.76;100.00
36630;BME280;36256;42.154;23.002;2023-05-09T02:26:40;97347.66;;;14.90;100.00
36630;BME280;36256;42.154;23.002;2023-05-09T02:29:07;97331.19;;;14.65;100.00
36630;BME280;36256;42.154;23.002;2023-05-09T02:31:39;97348.31;;;14.85;100.00
36630;BME280;36256;42.154;23.002;2023-05-09T02:34:07;97355.81;;;14.88;100.00
36630;BME280;36256;42.154;23.002;2023-05-09T02:36:35;97355.63;;;14.91;100.00
36630;BME280;36256;42.154;23.002;2023-05-09T02:39:02;97352.91;;;14.82;100.00
36630;BME280;36256;42.154;23.002;2023-05-09T02:41:29;97361.47;;;14.88;100.00
36630;BME280;36256;42.154;23.002;2023-05-09T02:43:56;97358.47;;;14.91;100.00
36630;BME280;36256;42.154;23.002;2023-05-09T02:46:22;97360.69;;;14.87;100.00
36630;BME280;36256;42.154;23.002;2023-05-09T02:48:49;97358.16;;;14.89;100.00
36630;BME280;36256;42.154;23.002;2023-05-09T02:51:16;97354.63;;;14.80;100.00
36630;BME280;36256;42.154;23.002;2023-05-09T02:53:43;97360.28;;;14.80;100.00
36630;BME280;36256;42.154;23.002;2023-05-09T02:56:09;97350.28;;;14.70;100.00
36630;BME280;36256;42.154;23.002;2023-05-09T02:58:36;97364.34;;;14.79;100.00
36630;BME280;36256;42.154;23.002;2023-05-09T03:01:03;97361.03;;;14.80;100.00
36630;BME280;36256;42.154;23.002;2023-05-09T03:03:30;97364.19;;;14.82;100.00
36630;BME280;36256;42.154;23.002;2023-05-09T03:06:00;97364.94;;;14.83;100.00
36630;BME280;36256;42.154;23.002;2023-05-09T03:08:26;97371.81;;;14.67;100.00
36630;BME280;36256;42.154;23.002;2023-05-09T03:10:53;97374.63;;;14.67;100.00
36630;BME280;36256;42.154;23.002;2023-05-09T03:13:20;97373.25;;;14.63;100.00
36630;BME280;36256;42.154;23.002;2023-05-09T03:15:46;97376.13;;;14.54;100.00
36630;BME280;36256;42.154;23.002;2023-05-09T03:18:13;97377.84;;;14.51;100.00
36630;BME280;36256;42.154;23.002;2023-05-09T03:20:40;97377.75;;;14.37;100.00
36630;BME280;36256;42.154;23.002;2023-05-09T03:23:07;97381.25;;;14.32;100.00
36630;BME280;36256;42.154;23.002;2023-05-09T03:25:33;97389.25;;;14.33;100.00
36630;BME280;36256;42.154;23.002;2023-05-09T03:28:00;97384.63;;;14.45;100.00
36630;BME280;36256;42.154;23.002;2023-05-09T03:30:26;97385.59;;;14.42;100.00
36630;BME280;36256;42.154;23.002;2023-05-09T03:32:53;97392.44;;;14.50;100.00
36630;BME280;36256;42.154;23.002;2023-05-09T03:35:20;97398.69;;;14.54;100.00
36630;BME280;36256;42.154;23.002;2023-05-09T03:37:46;97393.25;;;14.50;100.00
36630;BME280;36256;42.154;23.002;2023-05-09T03:40:13;97389.31;;;14.48;100.00
36630;BME280;36256;42.154;23.002;2023-05-09T03:42:40;97389.94;;;14.52;100.00
36630;BME280;36256;42.154;23.002;2023-05-09T03:45:07;97387.72;;;14.56;100.00
36630;BME280;36256;42.154;23.002;2023-05-09T03:47:34;97399.97;;;14.53;100.00
36630;BME280;36256;42.154;23.002;2023-05-09T03:50:00;97394.03;;;14.51;100.00
36630;BME280;36256;42.154;23.002;2023-05-09T03:52:27;97396.06;;;14.50;100.00
36630;BME280;36256;42.154;23.002;2023-05-09T03:54:54;97386.22;;;14.37;100.00
36630;BME280;36256;42.154;23.002;2023-05-09T03:57:20;97393.25;;;14.50;100.00
36630;BME280;36256;42.154;23.002;2023-05-09T03:59:47;97395.56;;;14.52;100.00
36630;BME280;36256;42.154;23.002;2023-05-09T04:02:14;97403.41;;;14.57;100.00
36630;BME280;36256;42.154;23.002;2023-05-09T04:04:41;97407.47;;;14.56;100.00
36630;BME280;36256;42.154;23.002;2023-05-09T04:07:07;97410.91;;;14.60;100.00
36630;BME280;36256;42.154;23.002;2023-05-09T04:09:34;97405.81;;;14.73;100.00
36630;BME280;36256;42.154;23.002;2023-05-09T04:12:01;97410.25;;;14.65;100.00
36630;BME280;36256;42.154;23.002;2023-05-09T04:14:27;97408.69;;;14.64;100.00
36630;BME280;36256;42.154;23.002;2023-05-09T04:16:54;97408.34;;;14.71;100.00
36630;BME280;36256;42.154;23.002;2023-05-09T04:19:21;97413.34;;;14.76;100.00
36630;BME280;36256;42.154;23.002;2023-05-09T04:21:47;97411.88;;;14.80;100.00
36630;BME280;36256;42.154;23.002;2023-05-09T04:24:14;97410.94;;;14.83;100.00
36630;BME280;36256;42.154;23.002;2023-05-09T04:26:41;97406.69;;;14.88;100.00
36630;BME280;36256;42.154;23.002;2023-05-09T04:29:07;97412.44;;;14.93;100.00
36630;BME280;36256;42.154;23.002;2023-05-09T04:31:34;97415.72;;;15.01;100.00
36630;BME280;36256;42.154;23.002;2023-05-09T04:34:01;97413.22;;;14.94;100.00
36630;BME280;36256;42.154;23.002;2023-05-09T04:36:28;97403.81;;;14.97;99.42
36630;BME280;36256;42.154;23.002;2023-05-09T04:38:55;97410.66;;;15.05;100.00
36630;BME280;36256;42.154;23.002;2023-05-09T04:41:22;97415.03;;;15.06;99.75
36630;BME280;36256;42.154;23.002;2023-05-09T04:43:49;97409.06;;;15.04;98.91
36630;BME280;36256;42.154;23.002;2023-05-09T04:46:17;97416.72;;;15.13;99.42
36630;BME280;36256;42.154;23.002;2023-05-09T04:48:43;97397.19;;;15.00;98.77
36630;BME280;36256;42.154;23.002;2023-05-09T04:51:10;97413.25;;;15.18;99.32
36630;BME280;36256;42.154;23.002;2023-05-09T04:53:37;97422.41;;;15.27;99.18
36630;BME280;36256;42.154;23.002;2023-05-09T04:56:03;97417.34;;;15.31;99.06
36630;BME280;36256;42.154;23.002;2023-05-09T04:58:30;97414.03;;;15.18;96.85
36630;BME280;36256;42.154;23.002;2023-05-09T05:00:58;97410.34;;;15.27;97.84
36630;BME280;36256;42.154;23.002;2023-05-09T05:03:25;97411.03;;;15.36;98.11
36630;BME280;36256;42.154;23.002;2023-05-09T05:05:51;97412.63;;;15.37;98.42
36630;BME280;36256;42.154;23.002;2023-05-09T05:08:18;97416.66;;;15.45;96.63
36630;BME280;36256;42.154;23.002;2023-05-09T05:10:45;97411.59;;;15.49;95.26
36630;BME280;36256;42.154;23.002;2023-05-09T05:13:12;97403.06;;;15.58;95.59
36630;BME280;36256;42.154;23.002;2023-05-09T05:15:39;97405.94;;;15.49;94.75
36630;BME280;36256;42.154;23.002;2023-05-09T05:18:06;97398.56;;;15.52;94.30
36630;BME280;36256;42.154;23.002;2023-05-09T05:20:33;97390.16;;;15.57;96.08
36630;BME280;36256;42.154;23.002;2023-05-09T05:23:00;97403.06;;;15.58;93.22
36630;BME280;36256;42.154;23.002;2023-05-09T05:25:27;97403.72;;;15.68;93.89
36630;BME280;36256;42.154;23.002;2023-05-09T05:27:53;97414.69;;;15.75;92.61
36630;BME280;36256;42.154;23.002;2023-05-09T05:30:20;97408.53;;;15.77;91.68
36630;BME280;36256;42.154;23.002;2023-05-09T05:32:47;97404.63;;;15.89;91.73
36630;BME280;36256;42.154;23.002;2023-05-09T05:35:13;97398.22;;;16.03;91.08
36630;BME280;36256;42.154;23.002;2023-05-09T05:37:40;97405.63;;;16.15;88.75
36630;BME280;36256;42.154;23.002;2023-05-09T05:40:08;97401.69;;;16.27;86.26
36630;BME280;36256;42.154;23.002;2023-05-09T05:42:35;97410.00;;;16.45;86.43
36630;BME280;36256;42.154;23.002;2023-05-09T05:45:02;97407.22;;;16.65;84.15
36630;BME280;36256;42.154;23.002;2023-05-09T05:47:35;97412.13;;;16.99;82.51
36630;BME280;36256;42.154;23.002;2023-05-09T05:50:04;97409.59;;;17.62;80.80
36630;BME280;36256;42.154;23.002;2023-05-09T05:52:38;97413.63;;;18.01;76.11
36630;BME280;36256;42.154;23.002;2023-05-09T05:55:05;97407.44;;;18.54;74.55
36630;BME280;36256;42.154;23.002;2023-05-09T05:57:32;97412.47;;;18.75;74.16
36630;BME280;36256;42.154;23.002;2023-05-09T06:00:00;97408.00;;;19.00;70.02
36630;BME280;36256;42.154;23.002;2023-05-09T06:02:27;97408.63;;;19.21;70.46
36630;BME280;36256;42.154;23.002;2023-05-09T06:04:53;97410.97;;;19.70;68.81
36630;BME280;36256;42.154;23.002;2023-05-09T06:07:21;97410.50;;;19.99;68.21
36630;BME280;36256;42.154;23.002;2023-05-09T06:09:48;97408.25;;;20.31;65.44
36630;BME280;36256;42.154;23.002;2023-05-09T06:12:14;97408.75;;;20.24;64.19
36630;BME280;36256;42.154;23.002;2023-05-09T06:14:42;97382.38;;;20.40;64.19
36630;BME280;36256;42.154;23.002;2023-05-09T06:17:09;97405.13;;;20.79;64.06
36630;BME280;36256;42.154;23.002;2023-05-09T06:19:36;97408.91;;;21.42;62.15
36630;BME280;36256;42.154;23.002;2023-05-09T06:22:03;97395.88;;;21.58;61.40
36630;BME280;36256;42.154;23.002;2023-05-09T06:24:29;97396.31;;;21.04;61.84
36630;BME280;36256;42.154;23.002;2023-05-09T06:27:02;97407.88;;;21.45;60.48
36630;BME280;36256;42.154;23.002;2023-05-09T06:29:29;97393.59;;;21.40;59.79
36630;BME280;36256;42.154;23.002;2023-05-09T06:31:55;97391.06;;;21.31;60.80
36630;BME280;36256;42.154;23.002;2023-05-09T06:34:22;97392.69;;;20.82;61.71
36630;BME280;36256;42.154;23.002;2023-05-09T06:36:49;97395.81;;;20.62;63.43
36630;BME280;36256;42.154;23.002;2023-05-09T06:39:16;97396.56;;;20.90;64.13
36630;BME280;36256;42.154;23.002;2023-05-09T06:41:42;97387.22;;;20.95;62.69
36630;BME280;36256;42.154;23.002;2023-05-09T06:44:09;97390.06;;;21.00;63.55
36630;BME280;36256;42.154;23.002;2023-05-09T06:46:36;97402.31;;;20.57;65.22
36630;BME280;36256;42.154;23.002;2023-05-09T06:49:02;97394.00;;;20.25;63.41
36630;BME280;36256;42.154;23.002;2023-05-09T06:51:31;97388.03;;;20.51;62.09
36630;BME280;36256;42.154;23.002;2023-05-09T06:53:57;97399.72;;;20.59;65.27
36630;BME280;36256;42.154;23.002;2023-05-09T06:56:24;97397.38;;;20.63;65.98
36630;BME280;36256;42.154;23.002;2023-05-09T06:58:51;97392.94;;;20.84;64.73
36630;BME280;36256;42.154;23.002;2023-05-09T07:01:18;97393.22;;;20.86;64.45
36630;BME280;36256;42.154;23.002;2023-05-09T07:03:45;97407.44;;;21.08;64.41
36630;BME280;36256;42.154;23.002;2023-05-09T07:06:13;97394.13;;;21.38;60.18
36630;BME280;36256;42.154;23.002;2023-05-09T07:08:39;97386.38;;;21.28;58.50
36630;BME280;36256;42.154;23.002;2023-05-09T07:11:06;97374.81;;;20.76;61.57
36630;BME280;36256;42.154;23.002;2023-05-09T07:13:33;97381.56;;;20.40;62.46
36630;BME280;36256;42.154;23.002;2023-05-09T07:15:59;97381.03;;;20.69;63.18
36630;BME280;36256;42.154;23.002;2023-05-09T07:18:26;97394.47;;;21.18;60.50
36630;BME280;36256;42.154;23.002;2023-05-09T07:20:52;97384.09;;;20.93;58.86
36630;BME280;36256;42.154;23.002;2023-05-09T07:23:19;97388.75;;;21.18;57.22
36630;BME280;36256;42.154;23.002;2023-05-09T07:25:46;97383.06;;;20.96;56.45
36630;BME280;36256;42.154;23.002;2023-05-09T07:28:13;97382.09;;;20.71;56.13
36630;BME280;36256;42.154;23.002;2023-05-09T07:30:39;97381.25;;;20.93;57.38
36630;BME280;36256;42.154;23.002;2023-05-09T07:33:07;97357.56;;;21.31;56.57
36630;BME280;36256;42.154;23.002;2023-05-09T07:35:33;97369.81;;;21.83;55.08
36630;BME280;36256;42.154;23.002;2023-05-09T07:38:00;97364.75;;;22.01;54.67
36630;BME280;36256;42.154;23.002;2023-05-09T07:40:27;97359.81;;;22.07;52.93
36630;BME280;36256;42.154;23.002;2023-05-09T07:42:53;97362.78;;;21.90;53.59
36630;BME280;36256;42.154;23.002;2023-05-09T07:45:22;97370.75;;;21.97;55.05
36630;BME280;36256;42.154;23.002;2023-05-09T07:47:49;97376.78;;;21.88;55.86
36630;BME280;36256;42.154;23.002;2023-05-09T07:50:16;97359.41;;;21.80;53.75
36630;BME280;36256;42.154;23.002;2023-05-09T07:52:43;97367.41;;;21.93;54.26
36630;BME280;36256;42.154;23.002;2023-05-09T07:55:09;97358.53;;;21.97;54.00
36630;BME280;36256;42.154;23.002;2023-05-09T07:57:38;97358.13;;;21.81;53.40
36630;BME280;36256;42.154;23.002;2023-05-09T08:00:06;97362.81;;;21.73;52.00
36630;BME280;36256;42.154;23.002;2023-05-09T08:02:34;97336.69;;;21.58;51.70
36630;BME280;36256;42.154;23.002;2023-05-09T08:05:01;97359.09;;;21.43;54.83
36630;BME280;36256;42.154;23.002;2023-05-09T08:07:27;97351.84;;;21.31;54.33
36630;BME280;36256;42.154;23.002;2023-05-09T08:09:54;97367.41;;;21.36;55.19
36630;BME280;36256;42.154;23.002;2023-05-09T08:12:20;97365.34;;;21.36;55.17
36630;BME280;36256;42.154;23.002;2023-05-09T08:14:47;97358.03;;;21.46;53.28
36630;BME280;36256;42.154;23.002;2023-05-09T08:17:14;97358.13;;;21.19;54.42
36630;BME280;36256;42.154;23.002;2023-05-09T08:19:41;97359.75;;;21.03;54.11
36630;BME280;36256;42.154;23.002;2023-05-09T08:22:08;97358.25;;;20.47;57.72
36630;BME280;36256;42.154;23.002;2023-05-09T08:24:34;97363.97;;;20.36;58.14
36630;BME280;36256;42.154;23.002;2023-05-09T08:27:01;97363.19;;;20.46;60.61
36630;BME280;36256;42.154;23.002;2023-05-09T08:29:28;97364.72;;;20.36;57.17
36630;BME280;36256;42.154;23.002;2023-05-09T08:31:55;97364.22;;;20.38;58.94
36630;BME280;36256;42.154;23.002;2023-05-09T08:34:21;97369.91;;;20.38;61.80
36630;BME280;36256;42.154;23.002;2023-05-09T08:36:48;97360.31;;;20.52;58.02
36630;BME280;36256;42.154;23.002;2023-05-09T08:39:15;97351.50;;;20.22;58.20
36630;BME280;36256;42.154;23.002;2023-05-09T08:41:41;97367.31;;;20.28;57.95
36630;BME280;36256;42.154;23.002;2023-05-09T08:44:09;97364.19;;;20.60;57.85
36630;BME280;36256;42.154;23.002;2023-05-09T08:46:37;97357.47;;;20.74;55.32
36630;BME280;36256;42.154;23.002;2023-05-09T08:49:05;97362.59;;;21.03;58.72
36630;BME280;36256;42.154;23.002;2023-05-09T08:51:34;97361.53;;;21.12;55.86
36630;BME280;36256;42.154;23.002;2023-05-09T08:54:01;97365.38;;;21.25;59.32
36630;BME280;36256;42.154;23.002;2023-05-09T08:56:29;97363.38;;;20.87;55.59
36630;BME280;36256;42.154;23.002;2023-05-09T08:58:57;97362.06;;;20.82;58.07
36630;BME280;36256;42.154;23.002;2023-05-09T09:01:24;97378.66;;;21.00;60.46
36630;BME280;36256;42.154;23.002;2023-05-09T09:03:52;97358.16;;;21.02;58.39
36630;BME280;36256;42.154;23.002;2023-05-09T09:06:20;97368.28;;;21.08;60.03
36630;BME280;36256;42.154;23.002;2023-05-09T09:08:48;97366.94;;;21.26;58.06
36630;BME280;36256;42.154;23.002;2023-05-09T09:11:16;97369.44;;;21.46;57.83
36630;BME280;36256;42.154;23.002;2023-05-09T09:13:44;97358.06;;;21.35;55.69
36630;BME280;36256;42.154;23.002;2023-05-09T09:16:19;97361.94;;;21.43;55.95
36630;BME280;36256;42.154;23.002;2023-05-09T09:18:47;97361.06;;;21.59;58.12
36630;BME280;36256;42.154;23.002;2023-05-09T09:21:14;97359.31;;;21.51;56.74
36630;BME280;36256;42.154;23.002;2023-05-09T09:23:42;97362.66;;;21.60;57.38
36630;BME280;36256;42.154;23.002;2023-05-09T09:26:09;97345.66;;;21.27;54.30
36630;BME280;36256;42.154;23.002;2023-05-09T09:28:36;97357.66;;;21.09;54.10
36630;BME280;36256;42.154;23.002;2023-05-09T09:31:18;97346.56;;;20.78;58.83
36630;BME280;36256;42.154;23.002;2023-05-09T09:33:45;97354.56;;;20.85;58.40
36630;BME280;36256;42.154;23.002;2023-05-09T09:36:12;97353.53;;;20.77;57.69
36630;BME280;36256;42.154;23.002;2023-05-09T09:38:40;97344.16;;;20.93;55.06
36630;BME280;36256;42.154;23.002;2023-05-09T09:41:09;97353.03;;;20.73;55.28
36630;BME280;36256;42.154;23.002;2023-05-09T09:43:37;97346.81;;;20.69;57.58
36630;BME280;36256;42.154;23.002;2023-05-09T09:46:04;97340.31;;;20.79;54.75
36630;BME280;36256;42.154;23.002;2023-05-09T09:48:33;97329.22;;;20.54;53.83
36630;BME280;36256;42.154;23.002;2023-05-09T09:51:10;97329.47;;;20.11;54.72
36630;BME280;36256;42.154;23.002;2023-05-09T09:53:41;97337.50;;;20.18;55.59
36630;BME280;36256;42.154;23.002;2023-05-09T09:56:09;97346.28;;;20.09;56.95
36630;BME280;36256;42.154;23.002;2023-05-09T09:58:36;97345.28;;;20.23;61.08
36630;BME280;36256;42.154;23.002;2023-05-09T10:01:07;97337.75;;;20.15;56.22
36630;BME280;36256;42.154;23.002;2023-05-09T10:03:39;97339.31;;;20.16;60.58
36630;BME280;36256;42.154;23.002;2023-05-09T10:06:14;97348.63;;;20.05;59.33
36630;BME280;36256;42.154;23.002;2023-05-09T10:08:44;97340.59;;;19.98;59.48
36630;BME280;36256;42.154;23.002;2023-05-09T10:11:14;97326.06;;;19.74;57.39
36630;BME280;36256;42.154;23.002;2023-05-09T10:13:42;97343.44;;;19.93;61.21
36630;BME280;36256;42.154;23.002;2023-05-09T10:16:10;97340.03;;;19.72;57.86
36630;BME280;36256;42.154;23.002;2023-05-09T10:18:38;97352.66;;;19.60;59.84
36630;BME280;36256;42.154;23.002;2023-05-09T10:21:10;97344.38;;;19.51;58.62
36630;BME280;36256;42.154;23.002;2023-05-09T10:23:42;97346.22;;;19.65;60.41
36630;BME280;36256;42.154;23.002;2023-05-09T10:26:23;97350.13;;;19.68;64.88
36630;BME280;36256;42.154;23.002;2023-05-09T10:28:56;97339.03;;;19.97;60.75
36630;BME280;36256;42.154;23.002;2023-05-09T10:31:27;97341.38;;;20.15;63.32
36630;BME280;36256;42.154;23.002;2023-05-09T10:33:55;97340.34;;;20.02;60.02
36630;BME280;36256;42.154;23.002;2023-05-09T10:36:22;97320.91;;;19.89;58.45
36630;BME280;36256;42.154;23.002;2023-05-09T10:38:53;97348.63;;;20.05;60.06
36630;BME280;36256;42.154;23.002;2023-05-09T10:41:21;97335.41;;;19.91;60.23
36630;BME280;36256;42.154;23.002;2023-05-09T10:43:49;97329.69;;;19.86;57.76
36630;BME280;36256;42.154;23.002;2023-05-09T10:46:16;97344.22;;;19.99;61.04
36630;BME280;36256;42.154;23.002;2023-05-09T10:48:43;97338.78;;;19.95;60.00
36630;BME280;36256;42.154;23.002;2023-05-09T10:51:11;97342.66;;;20.03;59.82
36630;BME280;36256;42.154;23.002;2023-05-09T10:53:44;97334.91;;;20.09;58.97
36630;BME280;36256;42.154;23.002;2023-05-09T10:56:33;97339.81;;;20.03;59.28
36630;BME280;36256;42.154;23.002;2023-05-09T10:59:01;97340.34;;;20.02;60.41
36630;BME280;36256;42.154;23.002;2023-05-09T11:01:33;97344.75;;;19.97;60.79
36630;BME280;36256;42.154;23.002;2023-05-09T11:04:10;97337.75;;;19.93;59.90
36630;BME280;36256;42.154;23.002;2023-05-09T11:11:55;97345.47;;;19.81;59.71
36630;BME280;36256;42.154;23.002;2023-05-09T11:17:05;97344.69;;;19.75;59.85
36630;BME280;36256;42.154;23.002;2023-05-09T11:22:00;97359.09;;;19.49;63.54
36630;BME280;36256;42.154;23.002;2023-05-09T11:24:30;97349.69;;;19.27;61.38
36630;BME280;36256;42.154;23.002;2023-05-09T11:26:58;97352.00;;;19.17;64.11
36630;BME280;36256;42.154;23.002;2023-05-09T11:29:25;97358.69;;;19.14;65.56
36630;BME280;36256;42.154;23.002;2023-05-09T11:32:04;97368.00;;;19.15;67.22
36630;BME280;36256;42.154;23.002;2023-05-09T11:34:33;97357.56;;;18.95;66.97
36630;BME280;36256;42.154;23.002;2023-05-09T11:37:08;97360.16;;;18.99;65.36
36630;BME280;36256;42.154;23.002;2023-05-09T11:40:00;97360.97;;;19.05;67.26
36630;BME280;36256;42.154;23.002;2023-05-09T11:42:30;97366.66;;;19.05;64.31
36630;BME280;36256;42.154;23.002;2023-05-09T11:44:58;97357.03;;;18.97;64.03
36630;BME280;36256;42.154;23.002;2023-05-09T11:47:25;97363.84;;;19.10;64.07
36630;BME280;36256;42.154;23.002;2023-05-09T11:49:54;97358.88;;;19.00;61.45
36630;BME280;36256;42.154;23.002;2023-05-09T11:52:21;97372.69;;;18.75;63.27
36630;BME280;36256;42.154;23.002;2023-05-09T11:54:48;97365.91;;;18.67;67.63
36630;BME280;36256;42.154;23.002;2023-05-09T11:57:15;97367.25;;;18.72;65.51
36630;BME280;36256;42.154;23.002;2023-05-09T11:59:43;97373.09;;;18.57;66.18
36630;BME280;36256;42.154;23.002;2023-05-09T12:02:11;97360.97;;;18.31;65.14
36630;BME280;36256;42.154;23.002;2023-05-09T12:04:39;97367.19;;;18.35;68.50
36630;BME280;36256;42.154;23.002;2023-05-09T12:07:05;97364.34;;;18.35;67.52
36630;BME280;36256;42.154;23.002;2023-05-09T12:09:34;97364.00;;;18.22;65.97
36630;BME280;36256;42.154;23.002;2023-05-09T12:12:11;97373.06;;;17.95;69.23
36630;BME280;36256;42.154;23.002;2023-05-09T12:14:38;97373.69;;;18.10;67.63
36630;BME280;36256;42.154;23.002;2023-05-09T12:17:06;97368.13;;;18.21;67.55
36630;BME280;36256;42.154;23.002;2023-05-09T12:19:33;97368.66;;;18.25;68.01
36630;BME280;36256;42.154;23.002;2023-05-09T12:22:02;97358.41;;;18.33;66.64
36630;BME280;36256;42.154;23.002;2023-05-09T12:24:29;97360.50;;;18.38;66.92
36630;BME280;36256;42.154;23.002;2023-05-09T12:26:58;97361.34;;;18.44;69.73
36630;BME280;36256;42.154;23.002;2023-05-09T12:29:25;97353.66;;;18.19;66.91
36630;BME280;36256;42.154;23.002;2023-05-09T12:31:53;97369.19;;;17.98;70.66
36630;BME280;36256;42.154;23.002;2023-05-09T12:34:20;97364.53;;;17.95;70.80
36630;BME280;36256;42.154;23.002;2023-05-09T12:36:46;97355.91;;;17.84;71.67
36630;BME280;36256;42.154;23.002;2023-05-09T12:39:17;97367.53;;;17.86;70.71
36630;BME280;36256;42.154;23.002;2023-05-09T12:41:44;97363.59;;;17.78;71.44
36630;BME280;36256;42.154;23.002;2023-05-09T12:44:26;97355.47;;;17.65;71.61
36630;BME280;36256;42.154;23.002;2023-05-09T12:46:57;97354.69;;;17.45;74.15
36630;BME280;36256;42.154;23.002;2023-05-09T12:49:24;97359.88;;;17.46;74.22
36630;BME280;36256;42.154;23.002;2023-05-09T12:51:51;97354.63;;;17.39;75.14
36630;BME280;36256;42.154;23.002;2023-05-09T12:54:23;97356.41;;;17.37;75.63
36630;BME280;36256;42.154;23.002;2023-05-09T12:56:51;97342.06;;;17.25;76.06
36630;BME280;36256;42.154;23.002;2023-05-09T12:59:23;97355.69;;;17.21;73.84
36630;BME280;36256;42.154;23.002;2023-05-09T13:01:51;97364.84;;;17.11;76.49